createdAt,value
2023-04-16T00:02:28.077Z,9.21
2023-04-16T00:05:15.171Z,9.22
2023-04-16T00:08:02.374Z,9.21
2023-04-16T00:10:49.222Z,9.19
2023-04-16T00:13:36.091Z,9.20
2023-04-16T00:16:23.046Z,9.19
2023-04-16T00:19:10.127Z,9.19
2023-04-16T00:21:57.224Z,9.19
2023-04-16T00:24:44.090Z,9.18
2023-04-16T00:27:30.957Z,9.19
2023-04-16T00:30:17.881Z,9.18
2023-04-16T00:33:04.852Z,9.16
2023-04-16T00:35:51.723Z,9.18
2023-04-16T00:38:38.574Z,9.18
2023-04-16T00:41:26.254Z,9.17
2023-04-16T00:44:13.089Z,9.17
2023-04-16T00:46:59.960Z,9.17
2023-04-16T00:49:46.960Z,9.16
2023-04-16T00:52:34.697Z,9.16
2023-04-16T00:55:22.192Z,9.15
2023-04-16T00:58:09.045Z,9.14
2023-04-16T01:00:56.611Z,9.16
2023-04-16T01:03:46.801Z,9.14
2023-04-16T01:06:33.785Z,9.15
2023-04-16T01:09:20.859Z,9.14
2023-04-16T01:12:07.721Z,9.14
2023-04-16T01:14:54.678Z,9.15
2023-04-16T01:17:41.561Z,9.13
2023-04-16T01:20:29.452Z,9.14
2023-04-16T01:23:18.556Z,9.13
2023-04-16T01:26:05.361Z,9.12
2023-04-16T01:28:52.170Z,9.12
2023-04-16T01:31:39.050Z,9.11
2023-04-16T01:34:25.920Z,9.11
2023-04-16T01:37:12.908Z,9.10
2023-04-16T01:39:59.749Z,9.11
2023-04-16T01:42:46.612Z,9.11
2023-04-16T01:45:34.404Z,9.10
2023-04-16T01:48:21.261Z,9.10
2023-04-16T01:51:08.235Z,9.09
2023-04-16T01:53:55.362Z,9.09
2023-04-16T01:56:42.206Z,9.09
2023-04-16T01:59:29.359Z,9.09
2023-04-16T02:02:16.642Z,9.10
2023-04-16T02:05:03.858Z,9.09
2023-04-16T02:07:50.857Z,9.09
2023-04-16T02:10:37.656Z,9.09
2023-04-16T02:13:26.086Z,9.09
2023-04-16T02:16:12.930Z,9.09
2023-04-16T02:18:59.768Z,9.09
2023-04-16T02:21:46.691Z,9.10
2023-04-16T02:24:33.524Z,9.08
2023-04-16T02:27:20.503Z,9.09
2023-04-16T02:30:08.065Z,9.08
2023-04-16T02:32:55.029Z,9.08
2023-04-16T02:35:42.008Z,9.07
2023-04-16T02:38:28.857Z,9.06
2023-04-16T02:41:15.922Z,9.07
2023-04-16T02:44:02.720Z,9.07
2023-04-16T02:46:49.620Z,9.07
2023-04-16T02:49:36.564Z,9.08
2023-04-16T02:52:23.454Z,9.08
2023-04-16T02:55:11.159Z,9.06
2023-04-16T02:57:58.040Z,9.06
2023-04-16T03:00:45.018Z,9.07
2023-04-16T03:03:31.872Z,9.06
2023-04-16T03:06:18.713Z,9.07
2023-04-16T03:09:05.749Z,9.05
2023-04-16T03:11:52.601Z,9.05
2023-04-16T03:14:39.492Z,9.04
2023-04-16T03:17:26.328Z,9.06
2023-04-16T03:20:14.469Z,9.05
2023-04-16T03:23:01.527Z,9.05
2023-04-16T03:25:48.387Z,9.04
2023-04-16T03:28:35.340Z,9.04
2023-04-16T03:31:24.477Z,9.04
2023-04-16T03:34:11.396Z,9.04
2023-04-16T03:36:58.446Z,9.02
2023-04-16T03:39:45.543Z,9.02
2023-04-16T03:42:32.367Z,9.00
2023-04-16T03:45:19.224Z,9.02
2023-04-16T03:48:06.480Z,9.02
2023-04-16T03:50:53.293Z,9.01
2023-04-16T03:53:40.140Z,9.01
2023-04-16T03:56:26.975Z,9.01
2023-04-16T03:59:13.819Z,9.01
2023-04-16T04:02:00.870Z,9.01
2023-04-16T04:04:48.326Z,9.01
2023-04-16T04:07:35.333Z,9.00
2023-04-16T04:10:22.195Z,9.00
2023-04-16T04:13:09.574Z,9.02
2023-04-16T04:15:56.612Z,9.01
2023-04-16T04:18:44.575Z,9.00
2023-04-16T04:21:32.007Z,8.99
2023-04-16T04:24:18.871Z,9.00
2023-04-16T04:27:05.801Z,9.00
2023-04-16T04:29:53.192Z,9.00
2023-04-16T04:32:40.120Z,9.00
2023-04-16T04:35:27.092Z,9.00
2023-04-16T04:38:16.146Z,8.99
2023-04-16T04:41:03.286Z,8.99
2023-04-16T04:43:50.209Z,8.98
2023-04-16T04:46:37.085Z,8.96
2023-04-16T04:49:23.934Z,8.96
2023-04-16T04:52:11.567Z,8.96
2023-04-16T04:54:58.482Z,8.96
2023-04-16T04:57:45.422Z,8.96
2023-04-16T05:00:33.508Z,8.96
2023-04-16T05:03:21.840Z,8.95
2023-04-16T05:06:08.844Z,8.95
2023-04-16T05:08:55.682Z,8.95
2023-04-16T05:11:42.478Z,8.94
2023-04-16T05:14:29.346Z,8.94
2023-04-16T05:17:16.428Z,8.96
2023-04-16T05:20:03.364Z,8.95
2023-04-16T05:22:51.132Z,8.96
2023-04-16T05:25:37.983Z,8.97
2023-04-16T05:28:24.779Z,8.97
2023-04-16T05:31:11.765Z,8.99
2023-04-16T05:33:58.642Z,8.98
2023-04-16T05:36:45.972Z,8.99
2023-04-16T05:39:32.802Z,9.00
2023-04-16T05:42:19.729Z,9.01
2023-04-16T05:45:07.221Z,9.00
2023-04-16T05:47:54.171Z,9.01
2023-04-16T05:50:41.024Z,9.03
2023-04-16T05:53:27.837Z,9.03
2023-04-16T05:56:14.718Z,9.04
2023-04-16T05:59:01.639Z,9.04
2023-04-16T06:01:48.531Z,9.04
2023-04-16T06:04:35.985Z,9.05
2023-04-16T06:07:22.859Z,9.06
2023-04-16T06:10:12.517Z,9.07
2023-04-16T06:12:59.474Z,9.06
2023-04-16T06:15:46.819Z,9.07
2023-04-16T06:18:33.668Z,9.09
2023-04-16T06:21:20.810Z,9.10
2023-04-16T06:24:07.665Z,9.09
2023-04-16T06:26:54.730Z,9.10
2023-04-16T06:29:42.024Z,9.11
2023-04-16T06:32:29.045Z,9.13
2023-04-16T06:35:16.081Z,9.14
2023-04-16T06:38:02.875Z,9.14
2023-04-16T06:40:49.972Z,9.14
2023-04-16T06:43:36.935Z,9.15
2023-04-16T06:46:23.838Z,9.14
2023-04-16T06:49:10.889Z,9.16
2023-04-16T06:51:57.973Z,9.16
2023-04-16T06:54:44.869Z,9.18
2023-04-16T06:57:31.722Z,9.18
2023-04-16T07:00:18.936Z,9.19
2023-04-16T07:03:06.252Z,9.21
2023-04-16T07:05:53.282Z,9.21
2023-04-16T07:08:40.102Z,9.22
2023-04-16T07:11:27.431Z,9.23
2023-04-16T07:14:14.337Z,9.25
2023-04-16T07:17:01.198Z,9.27
2023-04-16T07:19:48.168Z,9.29
2023-04-16T07:22:35.150Z,9.31
2023-04-16T07:25:22.005Z,9.32
2023-04-16T07:28:08.868Z,9.34
2023-04-16T07:30:55.862Z,9.36
2023-04-16T07:33:42.737Z,9.37
2023-04-16T07:36:29.582Z,9.39
2023-04-16T07:39:16.447Z,9.42
2023-04-16T07:42:03.423Z,9.44
2023-04-16T07:44:50.278Z,9.48
2023-04-16T07:47:37.309Z,9.52
2023-04-16T07:50:25.093Z,9.55
2023-04-16T07:53:12.027Z,9.60
2023-04-16T07:55:58.895Z,9.64
2023-04-16T07:58:45.760Z,9.68
2023-04-16T08:01:32.929Z,9.72
2023-04-16T08:04:25.055Z,9.74
2023-04-16T08:07:12.764Z,9.79
2023-04-16T08:09:59.664Z,9.82
2023-04-16T08:12:46.536Z,9.83
2023-04-16T08:15:33.449Z,9.86
2023-04-16T08:18:20.334Z,9.88
2023-04-16T08:21:07.210Z,9.90
2023-04-16T08:23:54.300Z,9.91
2023-04-16T08:26:41.222Z,9.92
2023-04-16T08:29:28.409Z,9.93
2023-04-16T08:32:15.783Z,9.94
2023-04-16T08:35:02.663Z,9.96
2023-04-16T08:37:49.514Z,9.95
2023-04-16T08:40:40.024Z,9.96
2023-04-16T08:43:27.106Z,9.96
2023-04-16T08:46:17.774Z,9.97
2023-04-16T08:49:08.369Z,9.97
2023-04-16T08:51:56.330Z,9.97
2023-04-16T08:55:06.830Z,9.98
2023-04-16T08:58:07.842Z,9.98
2023-04-16T09:00:55.931Z,9.98
2023-04-16T09:03:42.978Z,9.98
2023-04-16T09:06:31.464Z,9.96
2023-04-16T09:09:18.355Z,9.97
2023-04-16T09:12:05.401Z,10.01
2023-04-16T09:14:52.724Z,10.06
2023-04-16T09:17:40.085Z,10.12
2023-04-16T09:20:27.016Z,10.16
2023-04-16T09:23:13.872Z,10.17
2023-04-16T09:26:00.915Z,10.18
2023-04-16T09:28:49.466Z,10.20
2023-04-16T09:31:36.778Z,10.21
2023-04-16T09:34:23.814Z,10.21
2023-04-16T09:37:20.040Z,10.21
2023-04-16T09:40:07.544Z,10.21
2023-04-16T09:42:57.586Z,10.22
2023-04-16T09:45:54.553Z,10.23
2023-04-16T09:48:41.438Z,10.22
2023-04-16T09:51:37.201Z,10.24
2023-04-16T09:54:26.172Z,10.25
2023-04-16T09:57:13.135Z,10.28
2023-04-16T10:00:08.959Z,10.30
2023-04-16T10:03:06.746Z,10.32
2023-04-16T10:05:53.969Z,10.34
2023-04-16T10:08:44.868Z,10.38
2023-04-16T10:11:31.865Z,10.40
2023-04-16T10:14:18.755Z,10.42
2023-04-16T10:17:06.559Z,10.45
2023-04-16T10:19:54.665Z,10.50
2023-04-16T10:22:42.094Z,10.55
2023-04-16T10:25:29.076Z,10.59
2023-04-16T10:28:16.648Z,10.65
2023-04-16T10:31:07.326Z,10.70
2023-04-16T10:33:54.751Z,10.75
2023-04-16T10:36:42.065Z,10.76
2023-04-16T10:39:32.985Z,10.79
2023-04-16T10:42:19.841Z,10.82
2023-04-16T10:45:07.446Z,10.84
2023-04-16T10:47:57.572Z,10.89
2023-04-16T10:50:54.713Z,10.92
2023-04-16T10:53:41.796Z,10.92
2023-04-16T10:56:32.317Z,10.93
2023-04-16T10:59:21.122Z,10.95
2023-04-16T11:02:13.290Z,10.97
2023-04-16T11:05:01.882Z,10.97
2023-04-16T11:07:49.857Z,10.99
2023-04-16T11:10:39.470Z,11.02
2023-04-16T11:13:26.515Z,11.04
2023-04-16T11:16:14.559Z,11.06
2023-04-16T11:19:01.856Z,11.06
2023-04-16T11:21:49.272Z,11.08
2023-04-16T11:24:36.223Z,11.09
2023-04-16T11:27:24.250Z,11.13
2023-04-16T11:30:11.380Z,11.15
2023-04-16T11:32:58.348Z,11.17
2023-04-16T11:35:46.061Z,11.21
2023-04-16T11:38:37.260Z,11.22
2023-04-16T11:41:24.081Z,11.25
2023-04-16T11:44:21.872Z,11.29
2023-04-16T11:47:08.761Z,11.31
2023-04-16T11:49:55.630Z,11.36
2023-04-16T11:52:42.627Z,11.39
2023-04-16T11:55:29.821Z,11.41
2023-04-16T11:58:16.664Z,11.45
2023-04-16T12:01:04.794Z,11.46
2023-04-16T12:04:02.351Z,11.52
2023-04-16T12:07:10.029Z,11.55
2023-04-16T12:10:08.136Z,11.58
2023-04-16T12:12:55.992Z,11.63
2023-04-16T12:15:52.621Z,11.65
2023-04-16T12:18:58.913Z,11.69
2023-04-16T12:21:47.268Z,11.71
2023-04-16T12:24:36.899Z,11.72
2023-04-16T12:27:26.630Z,11.75
2023-04-16T12:30:20.768Z,11.78
2023-04-16T12:33:15.361Z,11.80
2023-04-16T12:36:17.097Z,11.83
2023-04-16T12:39:05.090Z,11.85
2023-04-16T12:41:51.948Z,11.88
2023-04-16T12:44:38.838Z,11.89
2023-04-16T12:47:25.769Z,11.91
2023-04-16T12:50:12.717Z,11.94
2023-04-16T12:52:59.738Z,11.96
2023-04-16T12:55:46.615Z,11.98
2023-04-16T12:58:34.441Z,11.99
2023-04-16T13:01:21.582Z,12.01
2023-04-16T13:04:09.340Z,12.03
2023-04-16T13:06:56.310Z,12.06
2023-04-16T13:09:43.745Z,12.07
2023-04-16T13:12:31.017Z,12.09
2023-04-16T13:15:18.063Z,12.11
2023-04-16T13:18:05.026Z,12.13
2023-04-16T13:20:52.155Z,12.17
2023-04-16T13:23:39.025Z,12.19
2023-04-16T13:26:26.603Z,12.21
2023-04-16T13:29:13.662Z,12.22
2023-04-16T13:32:00.747Z,12.24
2023-04-16T13:34:47.683Z,12.26
2023-04-16T13:37:34.784Z,12.27
2023-04-16T13:40:21.745Z,12.28
2023-04-16T13:43:08.646Z,12.31
2023-04-16T13:45:55.910Z,12.32
2023-04-16T13:48:42.828Z,12.34
2023-04-16T13:51:29.741Z,12.35
2023-04-16T13:54:16.639Z,12.27
2023-04-16T13:57:03.625Z,12.29
2023-04-16T13:59:50.519Z,12.34
2023-04-16T14:02:37.493Z,12.39
2023-04-16T14:05:26.990Z,12.42
2023-04-16T14:08:16.571Z,12.44
2023-04-16T14:11:03.589Z,12.46
2023-04-16T14:13:50.481Z,12.46
2023-04-16T14:16:37.475Z,12.48
2023-04-16T14:19:24.442Z,12.51
2023-04-16T14:22:11.280Z,12.52
2023-04-16T14:24:58.151Z,12.52
2023-04-16T14:27:45.035Z,12.54
2023-04-16T14:30:31.860Z,12.57
2023-04-16T14:33:18.772Z,12.57
2023-04-16T14:36:06.069Z,12.59
2023-04-16T14:38:52.907Z,12.60
2023-04-16T14:41:39.802Z,12.62
2023-04-16T14:44:26.690Z,12.64
2023-04-16T14:47:13.589Z,12.66
2023-04-16T14:50:01.649Z,12.67
2023-04-16T14:52:48.513Z,12.68
2023-04-16T14:55:35.371Z,12.69
2023-04-16T14:58:23.013Z,12.70
2023-04-16T15:01:10.094Z,12.72
2023-04-16T15:03:57.924Z,12.73
2023-04-16T15:06:46.665Z,12.75
2023-04-16T15:09:34.573Z,12.77
2023-04-16T15:12:21.484Z,12.77
2023-04-16T15:15:09.124Z,12.79
2023-04-16T15:17:57.010Z,12.81
2023-04-16T15:20:43.953Z,12.80
2023-04-16T15:23:31.035Z,12.81
2023-04-16T15:26:18.283Z,12.81
2023-04-16T15:29:05.257Z,12.83
2023-04-16T15:31:52.127Z,12.83
2023-04-16T15:34:39.106Z,12.83
2023-04-16T15:37:26.005Z,12.85
2023-04-16T15:40:12.953Z,12.85
2023-04-16T15:42:59.904Z,12.87
2023-04-16T15:45:46.740Z,12.87
2023-04-16T15:48:33.652Z,12.89
2023-04-16T15:51:20.578Z,12.89
2023-04-16T15:54:07.558Z,12.90
2023-04-16T15:56:54.531Z,12.92
2023-04-16T15:59:41.432Z,12.93
2023-04-16T16:02:30.548Z,12.93
2023-04-16T16:05:17.543Z,12.92
2023-04-16T16:08:04.866Z,12.94
2023-04-16T16:10:52.274Z,12.95
2023-04-16T16:13:39.166Z,12.96
2023-04-16T16:16:26.241Z,12.96
2023-04-16T16:19:13.265Z,12.97
2023-04-16T16:22:00.188Z,12.98
2023-04-16T16:24:50.919Z,12.98
2023-04-16T16:27:37.792Z,12.99
2023-04-16T16:30:25.106Z,12.99
2023-04-16T16:33:11.918Z,13.01
2023-04-16T16:35:58.768Z,13.01
2023-04-16T16:38:47.370Z,13.01
2023-04-16T16:41:37.609Z,13.02
2023-04-16T16:44:24.561Z,13.02
2023-04-16T16:47:11.370Z,13.02
2023-04-16T16:49:59.624Z,13.04
2023-04-16T16:52:48.262Z,13.05
2023-04-16T16:55:35.755Z,13.05
2023-04-16T16:58:23.800Z,13.06
2023-04-16T17:01:10.727Z,13.05
2023-04-16T17:03:57.719Z,13.06
2023-04-16T17:06:44.707Z,13.07
2023-04-16T17:09:31.907Z,13.07
2023-04-16T17:12:18.759Z,13.07
2023-04-16T17:15:05.933Z,13.06
2023-04-16T17:17:53.798Z,13.07
2023-04-16T17:20:41.182Z,13.07
2023-04-16T17:23:28.034Z,13.07
2023-04-16T17:26:14.953Z,13.07
2023-04-16T17:29:01.801Z,13.07
2023-04-16T17:31:48.687Z,13.08
2023-04-16T17:34:35.708Z,13.07
2023-04-16T17:37:23.126Z,13.07
2023-04-16T17:40:10.240Z,13.07
2023-04-16T17:42:57.090Z,13.06
2023-04-16T17:45:43.977Z,13.07
2023-04-16T17:48:31.152Z,13.06
2023-04-16T17:51:18.167Z,13.06
2023-04-16T17:54:05.307Z,13.06
2023-04-16T17:56:52.223Z,13.06
2023-04-16T17:59:39.107Z,13.05
2023-04-16T18:02:26.206Z,13.06
2023-04-16T18:05:13.594Z,13.05
2023-04-16T18:08:00.542Z,13.04
2023-04-16T18:10:47.356Z,13.02
2023-04-16T18:13:34.859Z,13.02
2023-04-16T18:16:22.598Z,13.01
2023-04-16T18:19:09.556Z,12.96
2023-04-16T18:21:56.469Z,12.85
2023-04-16T18:24:43.333Z,12.74
2023-04-16T18:27:30.206Z,12.66
2023-04-16T18:30:23.469Z,12.66
2023-04-16T18:36:03.765Z,12.85
2023-04-16T18:39:01.110Z,12.89
2023-04-16T18:41:49.835Z,12.94
2023-04-16T18:44:36.685Z,12.96
2023-04-16T18:47:23.853Z,12.96
2023-04-16T18:50:10.927Z,12.97
2023-04-16T18:52:57.756Z,12.96
2023-04-16T18:55:44.666Z,12.95
2023-04-16T18:58:31.556Z,12.95
2023-04-16T19:01:18.614Z,12.94
2023-04-16T19:04:05.743Z,12.93
2023-04-16T19:06:52.617Z,12.92
2023-04-16T19:09:39.476Z,12.92
2023-04-16T19:12:26.394Z,12.91
2023-04-16T19:15:14.788Z,12.90
2023-04-16T19:18:02.017Z,12.89
2023-04-16T19:20:48.982Z,12.88
2023-04-16T19:23:36.431Z,12.89
2023-04-16T19:26:23.382Z,12.87
2023-04-16T19:29:10.556Z,12.86
2023-04-16T19:31:57.636Z,12.85
2023-04-16T19:34:44.595Z,12.85
2023-04-16T19:37:31.544Z,12.85
2023-04-16T19:40:18.403Z,12.84
2023-04-16T19:43:05.410Z,12.83
2023-04-16T19:45:53.681Z,12.82
2023-04-16T19:48:40.898Z,12.81
2023-04-16T19:51:27.842Z,12.81
2023-04-16T19:54:14.740Z,12.80
2023-04-16T19:57:01.673Z,12.79
2023-04-16T19:59:48.589Z,12.77
2023-04-16T20:02:36.098Z,12.77
2023-04-16T20:05:23.004Z,12.76
2023-04-16T20:08:09.870Z,12.75
2023-04-16T20:10:56.858Z,12.75
2023-04-16T20:13:47.386Z,12.72
2023-04-16T20:16:35.123Z,12.73
2023-04-16T20:19:22.157Z,12.71
2023-04-16T20:22:09.037Z,12.70
2023-04-16T20:24:56.332Z,12.69
2023-04-16T20:27:43.178Z,12.69
2023-04-16T20:30:30.995Z,12.69
2023-04-16T20:33:17.920Z,12.67
2023-04-16T20:36:06.090Z,12.66
2023-04-16T20:38:53.982Z,12.66
2023-04-16T20:41:44.121Z,12.65
2023-04-16T20:44:40.113Z,12.64
2023-04-16T20:47:27.448Z,12.63
2023-04-16T20:50:14.404Z,12.61
2023-04-16T20:53:01.255Z,12.61
2023-04-16T20:55:48.062Z,12.60
2023-04-16T20:58:35.433Z,12.59
2023-04-16T21:01:22.366Z,12.59
2023-04-16T21:04:09.374Z,12.56
2023-04-16T21:06:56.653Z,12.56
2023-04-16T21:09:43.466Z,12.55
2023-04-16T21:12:30.513Z,12.53
2023-04-16T21:15:17.360Z,12.53
2023-04-16T21:18:04.350Z,12.52
2023-04-16T21:20:51.296Z,12.50
2023-04-16T21:23:38.143Z,12.50
2023-04-16T21:26:25.079Z,12.48
2023-04-16T21:29:12.142Z,12.47
2023-04-16T21:31:59.316Z,12.46
2023-04-16T21:34:46.326Z,12.44
2023-04-16T21:37:33.857Z,12.44
2023-04-16T21:40:20.824Z,12.42
2023-04-16T21:43:07.684Z,12.40
2023-04-16T21:45:54.876Z,12.38
2023-04-16T21:48:41.746Z,12.37
2023-04-16T21:51:31.323Z,12.37
2023-04-16T21:54:20.142Z,12.36
2023-04-16T21:57:06.998Z,12.34
2023-04-16T21:59:53.858Z,12.33
2023-04-16T22:02:42.727Z,12.32
2023-04-16T22:05:31.723Z,12.29
2023-04-16T22:08:24.909Z,12.28
2023-04-16T22:11:12.231Z,12.25
2023-04-16T22:13:59.099Z,12.26
2023-04-16T22:16:46.241Z,12.25
2023-04-16T22:19:34.807Z,12.23
2023-04-16T22:22:22.149Z,12.21
2023-04-16T22:25:09.814Z,12.21
2023-04-16T22:27:56.752Z,12.18
2023-04-16T22:30:43.574Z,12.16
2023-04-16T22:33:31.067Z,12.14
2023-04-16T22:36:17.898Z,12.12
2023-04-16T22:39:08.520Z,12.10
2023-04-16T22:41:56.366Z,12.08
2023-04-16T22:44:43.330Z,12.06
2023-04-16T22:47:30.289Z,12.03
2023-04-16T22:50:17.491Z,12.02
2023-04-16T22:53:04.351Z,11.99
2023-04-16T22:55:51.419Z,11.98
2023-04-16T22:58:38.623Z,11.95
2023-04-16T23:01:25.559Z,11.94
2023-04-16T23:04:12.530Z,11.91
2023-04-16T23:06:59.462Z,11.90
2023-04-16T23:09:46.306Z,11.87
2023-04-16T23:12:33.284Z,11.85
2023-04-16T23:15:20.169Z,11.84
2023-04-16T23:18:07.644Z,11.81
2023-04-16T23:20:54.559Z,11.78
2023-04-16T23:23:41.477Z,11.76
2023-04-16T23:26:28.326Z,11.74
2023-04-16T23:29:15.217Z,11.72
2023-04-16T23:32:02.065Z,11.70
2023-04-16T23:34:48.879Z,11.67
2023-04-16T23:37:35.730Z,11.68
2023-04-16T23:40:22.576Z,11.65
2023-04-16T23:43:09.476Z,11.63
2023-04-16T23:45:56.498Z,11.59
2023-04-16T23:48:43.415Z,11.59
2023-04-16T23:51:31.540Z,11.57
2023-04-16T23:54:18.948Z,11.55
2023-04-16T23:57:05.842Z,11.52
2023-04-16T23:59:52.911Z,11.51
